Time;durP1;ratioP1;P1;durP2;ratioP2;P2;SDS_P1;SDS_P2;PMS_P1;PMS_P2;Temp;Humidity;BMP_temperature;BMP_pressure;BME280_temperature;BME280_humidity;BME280_pressure;Samples;Min_cycle;Max_cycle;Signal;HPM_P1;HPM_P2
2022/01/01 00:00:12;;;;;;;;;;;;;;;16.69;43.30;99427.50;4484072;32;34852;-84
2022/01/01 00:02:40;;;;;;;;;;;;;;;16.82;43.08;99432.66;4483902;32;35240;-85
2022/01/01 00:05:08;;;;;;;;;;;;;;;16.78;43.11;99434.44;4483977;32;33902;-85
2022/01/01 00:07:36;;;;;;;;;;;;;;;16.72;43.48;99429.22;4483672;32;34091;-84
2022/01/01 00:10:03;;;;;;;;;;;;;;;16.20;44.44;99432.19;4483794;32;34786;-84
2022/01/01 00:12:31;;;;;;;;;;;;;;;16.26;44.50;99419.09;4482574;32;34849;-84
2022/01/01 00:14:58;;;;;;;;;;;;;;;16.32;44.37;99421.66;4483537;32;35047;-84
2022/01/01 00:17:26;;;;;;;;;;;;;;;16.30;44.36;99426.91;4482552;32;33400;-85
2022/01/01 00:19:53;;;;;;;;;;;;;;;16.25;44.45;99433.03;4483757;32;35007;-84
2022/01/01 00:22:20;;;;;;;;;;;;;;;16.36;44.07;99428.59;4483578;32;34562;-84
2022/01/01 00:24:47;;;;;;;;;;;;;;;16.21;44.34;99426.06;4483587;32;34224;-84
2022/01/01 00:27:15;;;;;;;;;;;;;;;16.18;44.39;99415.66;4483606;32;33588;-85
2022/01/01 00:29:42;;;;;;;;;;;;;;;16.05;44.24;99410.47;4483626;32;34252;-84
2022/01/01 00:32:09;;;;;;;;;;;;;;;15.81;44.67;99410.59;4483780;32;35246;-84
2022/01/01 00:34:37;;;;;;;;;;;;;;;15.87;44.62;99405.31;4483599;32;35053;-85
2022/01/01 00:37:04;;;;;;;;;;;;;;;16.10;44.21;99402.62;4482287;32;33427;-84
2022/01/01 00:39:31;;;;;;;;;;;;;;;15.94;44.58;99393.97;4482237;32;34043;-84
2022/01/01 00:41:59;;;;;;;;;;;;;;;16.14;44.08;99403.44;4483730;32;34508;-85
2022/01/01 00:44:26;;;;;;;;;;;;;;;15.67;45.12;99392.34;4483573;32;34396;-84
2022/01/01 00:46:54;;;;;;;;;;;;;;;16.14;44.20;99411.28;4483558;32;34396;-84
2022/01/01 00:49:21;;;;;;;;;;;;;;;16.04;44.12;99395.66;4483691;32;34941;-85
2022/01/01 00:51:48;;;;;;;;;;;;;;;15.78;44.60;99392.31;4483539;32;34156;-84
2022/01/01 00:54:16;;;;;;;;;;;;;;;15.99;44.01;99392.22;4482212;32;35020;-85
2022/01/01 00:56:43;;;;;;;;;;;;;;;15.92;43.85;99398.34;4483606;32;33936;-84
2022/01/01 00:59:10;;;;;;;;;;;;;;;15.70;44.35;99407.16;4483526;32;33230;-86
2022/01/01 01:01:38;;;;;;;;;;;;;;;15.69;44.14;99401.06;4483623;32;35007;-85
2022/01/01 01:04:06;;;;;;;;;;;;;;;15.72;44.25;99405.41;4483736;32;33372;-86
2022/01/01 01:06:33;;;;;;;;;;;;;;;15.60;44.24;99414.13;4483793;32;33304;-86
2022/01/01 01:09:00;;;;;;;;;;;;;;;15.63;44.02;99410.62;4483409;32;34662;-85
2022/01/01 01:11:28;;;;;;;;;;;;;;;15.37;44.70;99434.22;4482112;32;34225;-85
2022/01/01 01:14:00;;;;;;;;;;;;;;;15.55;44.64;99423.72;4483431;32;33817;-86
2022/01/01 01:16:27;;;;;;;;;;;;;;;15.41;44.38;99417.69;4482307;32;34265;-84
2022/01/01 01:18:57;;;;;;;;;;;;;;;15.18;44.94;99426.44;4483398;32;34310;-85
2022/01/01 01:21:25;;;;;;;;;;;;;;;15.03;45.88;99427.31;4483481;32;34431;-84
2022/01/01 01:23:53;;;;;;;;;;;;;;;15.41;44.78;99421.16;4482002;32;33950;-86
2022/01/01 01:26:22;;;;;;;;;;;;;;;15.03;45.55;99421.22;4483215;32;33339;-84
2022/01/01 01:28:51;;;;;;;;;;;;;;;15.07;45.47;99418.59;4482014;32;34948;-85
2022/01/01 01:31:18;;;;;;;;;;;;;;;15.40;44.49;99422.03;4483476;32;34475;-84
2022/01/01 01:33:46;;;;;;;;;;;;;;;15.26;44.74;99413.34;4482281;32;34113;-85
2022/01/01 01:36:13;;;;;;;;;;;;;;;15.30;44.58;99415.09;4483267;32;33418;-85
2022/01/01 01:38:41;;;;;;;;;;;;;;;15.23;44.75;99421.22;4482162;32;35148;-84
2022/01/01 01:41:09;;;;;;;;;;;;;;;15.31;44.14;99428.16;4481897;32;34098;-86
2022/01/01 01:43:36;;;;;;;;;;;;;;;15.35;44.13;99438.63;4481970;32;34190;-84
2022/01/01 01:46:05;;;;;;;;;;;;;;;14.91;45.02;99434.31;4482005;32;33723;-85
2022/01/01 01:48:33;;;;;;;;;;;;;;;15.10;44.69;99425.56;4483071;32;34259;-84
2022/01/01 01:51:00;;;;;;;;;;;;;;;14.74;45.65;99418.66;4483306;32;34286;-87
2022/01/01 01:53:28;;;;;;;;;;;;;;;14.82;45.68;99416.91;4481837;32;34138;-86
2022/01/01 01:55:56;;;;;;;;;;;;;;;15.00;45.25;99416.00;4482969;32;33230;-84
2022/01/01 01:58:23;;;;;;;;;;;;;;;14.95;45.55;99423.84;4481899;32;34982;-85
2022/01/01 02:01:20;;;;;;;;;;;;;;;15.13;45.03;99422.09;4483097;32;35294;-86
2022/01/01 02:03:41;;;;;;;;;;;;;;;14.83;46.23;99429.09;4482767;31;34220;-85
2022/01/01 02:06:08;;;;;;;;;;;;;;;14.43;46.74;99421.19;4482823;32;33289;-84
2022/01/01 02:08:35;;;;;;;;;;;;;;;14.98;45.92;99426.47;4482687;32;34281;-85
2022/01/01 02:11:03;;;;;;;;;;;;;;;14.52;46.76;99420.38;4482772;32;35301;-85
2022/01/01 02:13:40;;;;;;;;;;;;;;;14.87;46.37;99415.16;4481623;32;34971;-85
2022/01/01 02:18:44;;;;;;;;;;;;;;;14.50;47.36;99422.09;4483035;32;33991;-84
2022/01/01 02:21:12;;;;;;;;;;;;;;;14.67;47.14;99423.00;4482216;32;35324;-84
2022/01/01 02:23:43;;;;;;;;;;;;;;;15.03;46.35;99435.16;4482775;32;33940;-84
2022/01/01 02:26:12;;;;;;;;;;;;;;;14.91;46.24;99435.16;4481528;32;33457;-85
2022/01/01 02:28:40;;;;;;;;;;;;;;;14.80;46.74;99436.91;4482487;32;35153;-84
2022/01/01 02:31:07;;;;;;;;;;;;;;;15.14;46.11;99427.31;4481290;32;34512;-84
2022/01/01 02:33:36;;;;;;;;;;;;;;;14.89;46.31;99442.16;4482536;32;34332;-84
2022/01/01 02:36:04;;;;;;;;;;;;;;;14.64;46.59;99440.41;4480973;32;33101;-84
2022/01/01 02:38:32;;;;;;;;;;;;;;;14.94;46.10;99442.13;4482511;32;34250;-86
2022/01/01 02:40:59;;;;;;;;;;;;;;;14.17;47.98;99439.41;4482672;32;34454;-84
2022/01/01 02:43:26;;;;;;;;;;;;;;;13.87;49.02;99437.59;4481309;32;34826;-84
2022/01/01 02:45:54;;;;;;;;;;;;;;;13.99;50.63;99432.41;4482211;32;33529;-84
2022/01/01 02:48:21;;;;;;;;;;;;;;;14.33;49.94;99435.97;4482545;32;34561;-85
2022/01/01 02:50:52;;;;;;;;;;;;;;;14.58;48.68;99426.47;4484367;32;34210;-86
2022/01/01 02:53:19;;;;;;;;;;;;;;;13.59;50.99;99420.94;4484544;32;34825;-85
2022/01/01 02:55:46;;;;;;;;;;;;;;;13.64;54.71;99429.69;4484633;32;34174;-84
2022/01/01 02:58:13;;;;;;;;;;;;;;;14.35;51.76;99423.78;4484415;32;34047;-84
2022/01/01 03:00:41;;;;;;;;;;;;;;;13.40;54.88;99409.56;4484474;32;33898;-84
2022/01/01 03:03:08;;;;;;;;;;;;;;;14.25;53.34;99422.06;4483431;32;34154;-84
2022/01/01 03:05:36;;;;;;;;;;;;;;;14.10;54.44;99422.88;4483001;32;33572;-86
2022/01/01 03:08:04;;;;;;;;;;;;;;;14.08;54.38;99419.38;4484358;32;35108;-85
2022/01/01 03:10:31;;;;;;;;;;;;;;;14.62;53.23;99423.84;4484295;32;33740;-85
2022/01/01 03:12:59;;;;;;;;;;;;;;;14.20;54.50;99422.91;4484312;32;34273;-84
2022/01/01 03:15:26;;;;;;;;;;;;;;;12.91;57.69;99435.25;4484344;32;33508;-84
2022/01/01 03:17:53;;;;;;;;;;;;;;;14.15;54.41;99425.50;4484220;32;34351;-84
2022/01/01 03:20:20;;;;;;;;;;;;;;;14.32;54.64;99431.63;4482796;32;33336;-85
2022/01/01 03:22:47;;;;;;;;;;;;;;;13.85;55.67;99432.34;4484323;32;34337;-84
2022/01/01 03:25:15;;;;;;;;;;;;;;;14.31;54.79;99440.31;4484183;32;32863;-85
2022/01/01 03:27:42;;;;;;;;;;;;;;;13.88;55.93;99439.31;4484199;32;34112;-84
2022/01/01 03:30:09;;;;;;;;;;;;;;;13.56;57.26;99445.28;4484224;32;34784;-87
2022/01/01 03:32:36;;;;;;;;;;;;;;;14.52;54.47;99439.50;4483982;32;34926;-85
2022/01/01 03:35:04;;;;;;;;;;;;;;;14.14;55.92;99446.38;4484208;32;33392;-84
2022/01/01 03:37:31;;;;;;;;;;;;;;;14.25;55.72;99442.91;4484038;32;34881;-85
2022/01/01 03:39:58;;;;;;;;;;;;;;;13.99;56.31;99440.22;4484312;32;35077;-84
2022/01/01 03:42:26;;;;;;;;;;;;;;;14.00;56.64;99451.53;4484201;32;33684;-84
2022/01/01 03:44:53;;;;;;;;;;;;;;;13.86;57.19;99451.47;4484198;32;33371;-84
2022/01/01 03:47:20;;;;;;;;;;;;;;;14.49;54.77;99452.53;4483798;31;33729;-85
2022/01/01 03:49:49;;;;;;;;;;;;;;;14.42;54.92;99455.97;4484138;32;34285;-84
2022/01/01 03:52:16;;;;;;;;;;;;;;;14.53;54.93;99456.91;4484066;32;34221;-84
2022/01/01 03:54:43;;;;;;;;;;;;;;;14.66;54.31;99449.06;4483795;32;33584;-86
2022/01/01 03:57:11;;;;;;;;;;;;;;;14.47;55.03;99458.59;4483816;32;34373;-84
2022/01/01 03:59:38;;;;;;;;;;;;;;;14.61;54.09;99464.72;4483687;32;34530;-84
2022/01/01 04:02:05;;;;;;;;;;;;;;;14.28;55.57;99468.09;4483280;32;35141;-84
2022/01/01 04:04:33;;;;;;;;;;;;;;;15.05;51.90;99463.91;4484056;32;33722;-86
2022/01/01 04:07:02;;;;;;;;;;;;;;;14.86;53.82;99465.63;4483932;32;35135;-85
2022/01/01 04:09:29;;;;;;;;;;;;;;;15.53;52.04;99467.28;4483732;32;34582;-84
2022/01/01 04:11:56;;;;;;;;;;;;;;;14.03;56.51;99473.25;4483911;32;34987;-84
2022/01/01 04:14:23;;;;;;;;;;;;;;;14.05;56.40;99474.16;4482889;32;33972;-84
2022/01/01 04:16:53;;;;;;;;;;;;;;;14.47;55.33;99482.97;4483593;32;33884;-84
2022/01/01 04:19:27;;;;;;;;;;;;;;;13.87;56.83;99484.50;4483864;32;35271;-84
2022/01/01 04:21:54;;;;;;;;;;;;;;;13.71;57.73;99488.75;4483839;32;33448;-85
2022/01/01 04:24:21;;;;;;;;;;;;;;;14.51;55.30;99494.31;4483631;32;33568;-85
2022/01/01 04:26:49;;;;;;;;;;;;;;;15.28;52.34;99497.81;4483677;32;34296;-85
2022/01/01 04:29:16;;;;;;;;;;;;;;;14.84;54.04;99493.47;4484012;32;34374;-84
2022/01/01 04:31:44;;;;;;;;;;;;;;;15.38;52.51;99496.94;4483378;32;35025;-87
2022/01/01 04:34:11;;;;;;;;;;;;;;;15.13;52.65;99495.22;4483789;32;33204;-85
2022/01/01 04:36:47;;;;;;;;;;;;;;;14.90;53.06;99495.22;4484028;32;34050;-85
2022/01/01 04:39:15;;;;;;;;;;;;;;;15.38;51.70;99493.44;4483698;32;34259;-84
2022/01/01 04:41:42;;;;;;;;;;;;;;;14.03;56.28;99495.84;4483623;32;34174;-86
2022/01/01 04:44:09;;;;;;;;;;;;;;;14.05;56.10;99497.63;4483590;32;33590;-84
2022/01/01 04:46:36;;;;;;;;;;;;;;;13.73;57.86;99499.19;4483463;32;34733;-86
2022/01/01 04:49:04;;;;;;;;;;;;;;;13.61;57.74;99486.97;4483580;32;33925;-84
2022/01/01 04:51:31;;;;;;;;;;;;;;;13.41;59.09;99502.47;4483486;32;34254;-85
2022/01/01 04:54:01;;;;;;;;;;;;;;;12.96;60.17;99498.63;4483778;32;33494;-85
2022/01/01 04:56:30;;;;;;;;;;;;;;;13.37;59.04;99500.69;4483705;32;33820;-84
2022/01/01 04:58:57;;;;;;;;;;;;;;;13.35;59.03;99502.44;4483655;32;35371;-84
2022/01/01 05:01:24;;;;;;;;;;;;;;;13.23;59.91;99507.53;4483557;32;34171;-84
2022/01/01 05:03:52;;;;;;;;;;;;;;;13.97;57.67;99503.63;4483818;32;33038;-85
2022/01/01 05:06:19;;;;;;;;;;;;;;;13.05;60.32;99497.84;4483827;32;33846;-85
2022/01/01 05:08:46;;;;;;;;;;;;;;;12.41;62.76;99500.69;4483563;32;33919;-85
2022/01/01 05:11:14;;;;;;;;;;;;;;;13.18;60.69;99485.78;4483491;32;34209;-85
2022/01/01 05:13:41;;;;;;;;;;;;;;;13.31;59.78;99482.44;4483613;32;33350;-85
2022/01/01 05:16:14;;;;;;;;;;;;;;;12.63;62.35;99489.66;4483153;32;34039;-84
2022/01/01 05:18:41;;;;;;;;;;;;;;;13.02;61.26;99482.19;4483660;32;34278;-84
2022/01/01 05:21:08;;;;;;;;;;;;;;;13.54;59.14;99491.25;4483356;32;33797;-84
2022/01/01 05:23:35;;;;;;;;;;;;;;;12.70;62.10;99489.72;4483573;32;33362;-86
2022/01/01 05:26:02;;;;;;;;;;;;;;;12.93;61.66;99485.59;4483421;32;34134;-80
2022/01/01 05:28:30;;;;;;;;;;;;;;;12.57;62.63;99479.19;4483200;32;34435;-84
2022/01/01 05:30:57;;;;;;;;;;;;;;;12.64;62.83;99490.53;4483336;32;33576;-86
2022/01/01 05:33:24;;;;;;;;;;;;;;;12.94;61.42;99487.31;4482070;32;33076;-83
2022/01/01 05:35:52;;;;;;;;;;;;;;;13.19;60.95;99484.94;4481889;32;35121;-86
2022/01/01 05:38:19;;;;;;;;;;;;;;;13.08;61.33;99485.72;4483313;32;34422;-83
2022/01/01 05:40:53;;;;;;;;;;;;;;;12.73;62.69;99484.53;4483505;32;35048;-85
2022/01/01 05:43:20;;;;;;;;;;;;;;;12.70;62.83;99482.78;4482938;32;34445;-84
2022/01/01 05:45:48;;;;;;;;;;;;;;;12.31;63.97;99491.03;4483531;32;33403;-84
2022/01/01 05:48:15;;;;;;;;;;;;;;;11.99;65.34;99494.16;4483102;32;34382;-83
2022/01/01 05:50:42;;;;;;;;;;;;;;;12.38;64.16;99479.84;4481703;32;35070;-84
2022/01/01 05:53:10;;;;;;;;;;;;;;;12.74;62.67;99487.16;4482194;32;33448;-84
2022/01/01 05:55:37;;;;;;;;;;;;;;;13.03;62.03;99495.22;4481931;32;35416;-84
2022/01/01 05:58:05;;;;;;;;;;;;;;;12.77;62.44;99500.19;4482722;32;34466;-84
2022/01/01 06:00:33;;;;;;;;;;;;;;;12.51;63.77;99509.47;4483338;32;33663;-85
2022/01/01 06:03:01;;;;;;;;;;;;;;;12.96;61.90;99509.03;4483429;32;33164;-84
2022/01/01 06:05:28;;;;;;;;;;;;;;;12.71;62.83;99514.88;4482881;32;33382;-83
2022/01/01 06:07:56;;;;;;;;;;;;;;;13.65;60.01;99511.31;4481994;32;32594;-84
2022/01/01 06:10:24;;;;;;;;;;;;;;;13.49;60.07;99516.44;4481654;32;34609;-84
2022/01/01 06:12:51;;;;;;;;;;;;;;;13.30;60.75;99524.97;4481339;32;33317;-84
2022/01/01 06:15:19;;;;;;;;;;;;;;;13.69;59.42;99528.69;4481561;32;33716;-84
2022/01/01 06:17:46;;;;;;;;;;;;;;;14.07;58.28;99527.16;4481756;32;34839;-84
2022/01/01 06:20:13;;;;;;;;;;;;;;;13.65;59.52;99537.38;4482609;32;34839;-84
2022/01/01 06:23:01;;;;;;;;;;;;;;;13.39;60.56;99535.44;4481778;32;33474;-86
2022/01/01 06:25:28;;;;;;;;;;;;;;;13.34;60.55;99538.03;4484375;32;34087;-84
2022/01/01 06:27:55;;;;;;;;;;;;;;;13.33;60.55;99551.00;4484482;32;34384;-84
2022/01/01 06:30:23;;;;;;;;;;;;;;;13.51;60.03;99551.16;4484524;32;34334;-84
2022/01/01 06:32:51;;;;;;;;;;;;;;;13.08;61.28;99553.38;4484420;32;33706;-85
2022/01/01 06:35:19;;;;;;;;;;;;;;;13.85;59.16;99552.22;4484553;32;34021;-83
2022/01/01 06:37:46;;;;;;;;;;;;;;;12.92;61.78;99559.31;4483259;32;34345;-83
2022/01/01 06:40:13;;;;;;;;;;;;;;;13.12;61.72;99565.56;4484423;32;34094;-84
2022/01/01 06:42:40;;;;;;;;;;;;;;;13.60;60.26;99564.25;4484640;32;34232;-83
2022/01/01 06:45:08;;;;;;;;;;;;;;;13.33;60.46;99561.44;4484385;32;34236;-84
2022/01/01 06:47:35;;;;;;;;;;;;;;;12.72;62.30;99555.62;4484215;31;34316;-84
2022/01/01 06:50:02;;;;;;;;;;;;;;;13.27;60.88;99564.88;4484744;32;34586;-83
2022/01/01 06:52:30;;;;;;;;;;;;;;;13.70;59.38;99579.94;4484336;32;33565;-86
2022/01/01 06:54:57;;;;;;;;;;;;;;;14.03;58.63;99567.09;4484232;32;33895;-85
2022/01/01 06:57:24;;;;;;;;;;;;;;;13.44;60.30;99585.81;4484059;32;35330;-84
2022/01/01 06:59:51;;;;;;;;;;;;;;;14.52;56.92;99583.00;4484465;32;35716;-86
2022/01/01 07:02:18;;;;;;;;;;;;;;;13.33;60.63;99600.47;4484329;32;33989;-84
2022/01/01 07:04:46;;;;;;;;;;;;;;;13.69;59.57;99596.44;4484566;32;34688;-84
2022/01/01 07:07:14;;;;;;;;;;;;;;;14.45;57.17;99598.59;4484334;32;34337;-85
2022/01/01 07:09:41;;;;;;;;;;;;;;;13.85;58.83;99617.38;4484192;32;34384;-84
2022/01/01 07:12:09;;;;;;;;;;;;;;;14.05;58.02;99607.13;4484264;32;33370;-86
2022/01/01 07:14:36;;;;;;;;;;;;;;;14.78;56.30;99610.94;4484168;32;35160;-85
2022/01/01 07:17:03;;;;;;;;;;;;;;;15.04;55.31;99609.25;4484115;32;34126;-84
2022/01/01 07:19:30;;;;;;;;;;;;;;;14.52;57.34;99622.13;4484131;32;34241;-85
2022/01/01 07:22:00;;;;;;;;;;;;;;;14.74;55.79;99614.41;4484269;32;33392;-85
2022/01/01 07:24:27;;;;;;;;;;;;;;;15.50;53.72;99622.34;4484183;32;33880;-84
2022/01/01 07:26:55;;;;;;;;;;;;;;;15.27;54.54;99637.16;4484052;32;34447;-84
2022/01/01 07:29:23;;;;;;;;;;;;;;;15.19;54.54;99644.06;4484141;32;33717;-86
2022/01/01 07:31:53;;;;;;;;;;;;;;;15.36;54.26;99649.34;4482914;32;33605;-84
2022/01/01 07:34:20;;;;;;;;;;;;;;;15.55;53.27;99646.72;4484334;32;33855;-84
2022/01/01 07:36:48;;;;;;;;;;;;;;;14.95;55.30;99653.59;4483754;32;34284;-84
2022/01/01 07:39:15;;;;;;;;;;;;;;;15.35;53.87;99653.69;4484573;32;34132;-84
2022/01/01 07:41:42;;;;;;;;;;;;;;;14.77;55.24;99657.03;4484708;32;33440;-84
2022/01/01 07:44:10;;;;;;;;;;;;;;;15.01;55.12;99661.47;4484528;32;33985;-85
2022/01/01 07:46:37;;;;;;;;;;;;;;;14.42;57.00;99671.63;4484255;31;34296;-86
2022/01/01 07:49:05;;;;;;;;;;;;;;;15.43;53.94;99665.03;4484073;32;34781;-85
2022/01/01 07:51:32;;;;;;;;;;;;;;;14.69;55.94;99673.50;4482910;32;34166;-85
2022/01/01 07:53:59;;;;;;;;;;;;;;;14.19;57.75;99681.91;4484063;32;34824;-85
2022/01/01 07:56:27;;;;;;;;;;;;;;;14.88;56.00;99677.06;4483983;32;34242;-85
2022/01/01 07:58:54;;;;;;;;;;;;;;;15.09;55.37;99678.00;4482657;32;34163;-85
2022/01/01 08:01:21;;;;;;;;;;;;;;;14.91;55.50;99690.13;4484021;32;33489;-85
2022/01/01 08:03:49;;;;;;;;;;;;;;;15.74;53.27;99691.22;4484045;32;34218;-85
2022/01/01 08:06:17;;;;;;;;;;;;;;;16.02;52.62;99692.94;4484092;32;34482;-85
2022/01/01 08:08:44;;;;;;;;;;;;;;;15.32;55.03;99693.75;4483690;32;35105;-84
2022/01/01 08:11:11;;;;;;;;;;;;;;;15.96;53.19;99689.47;4483917;32;34209;-86
2022/01/01 08:13:38;;;;;;;;;;;;;;;16.49;51.67;99694.59;4483784;32;33570;-85
2022/01/01 08:16:06;;;;;;;;;;;;;;;17.47;49.40;99698.53;4483818;32;34111;-84
2022/01/01 08:18:33;;;;;;;;;;;;;;;16.69;51.42;99693.66;4483874;32;33883;-84
2022/01/01 08:21:00;;;;;;;;;;;;;;;15.46;54.79;99717.28;4483796;32;33295;-85
2022/01/01 08:23:28;;;;;;;;;;;;;;;15.96;53.67;99713.88;4483579;32;33652;-85
2022/01/01 08:25:56;;;;;;;;;;;;;;;16.64;51.52;99704.16;4483655;32;34495;-85
2022/01/01 08:28:23;;;;;;;;;;;;;;;15.30;54.77;99710.25;4483632;32;33990;-84
2022/01/01 08:30:50;;;;;;;;;;;;;;;16.56;51.38;99724.25;4483739;32;34112;-85
2022/01/01 08:33:18;;;;;;;;;;;;;;;17.05;50.01;99721.50;4483580;32;33911;-84
2022/01/01 08:35:45;;;;;;;;;;;;;;;15.09;55.61;99730.25;4483704;32;34918;-86
2022/01/01 08:38:13;;;;;;;;;;;;;;;15.15;55.75;99718.06;4483332;32;33489;-85
2022/01/01 08:40:41;;;;;;;;;;;;;;;15.99;53.42;99724.34;4482534;32;33412;-84
2022/01/01 08:43:08;;;;;;;;;;;;;;;15.84;54.17;99729.56;4482253;32;34321;-84
2022/01/01 08:45:35;;;;;;;;;;;;;;;14.94;57.04;99724.97;4482455;32;34399;-84
2022/01/01 08:48:03;;;;;;;;;;;;;;;14.80;57.46;99740.56;4483132;32;35511;-84
2022/01/01 08:50:31;;;;;;;;;;;;;;;15.68;54.97;99715.62;4482127;32;33627;-84
2022/01/01 08:52:58;;;;;;;;;;;;;;;14.84;57.10;99728.41;4483413;32;35123;-84
2022/01/01 08:55:25;;;;;;;;;;;;;;;15.70;55.21;99733.91;4483423;32;34210;-84
2022/01/01 08:57:53;;;;;;;;;;;;;;;15.12;56.75;99737.22;4483171;32;35326;-84
2022/01/01 09:00:40;;;;;;;;;;;;;;;15.51;56.06;99733.84;4483587;32;33651;-85
2022/01/01 09:03:07;;;;;;;;;;;;;;;15.73;55.29;99746.97;4483394;32;35002;-84
2022/01/01 09:05:41;;;;;;;;;;;;;;;15.20;56.58;99740.72;4483655;32;33995;-86
2022/01/01 09:08:29;;;;;;;;;;;;;;;15.50;56.09;99745.16;4483172;32;35096;-84
2022/01/01 09:10:56;;;;;;;;;;;;;;;15.58;55.82;99750.41;4482423;32;33036;-84
2022/01/01 09:13:24;;;;;;;;;;;;;;;16.16;54.12;99752.22;4483541;32;34894;-85
2022/01/01 09:15:52;;;;;;;;;;;;;;;16.58;53.00;99750.41;4483749;32;34208;-85
2022/01/01 09:18:19;;;;;;;;;;;;;;;16.02;54.53;99754.81;4483448;32;34684;-85
2022/01/01 09:20:48;;;;;;;;;;;;;;;16.69;53.12;99757.34;4483315;32;33310;-85
2022/01/01 09:23:16;;;;;;;;;;;;;;;16.54;52.93;99757.41;4483125;32;33998;-85
2022/01/01 09:25:43;;;;;;;;;;;;;;;16.74;52.57;99752.13;4483432;32;34062;-85
2022/01/01 09:28:10;;;;;;;;;;;;;;;16.48;53.22;99752.19;4483343;32;33481;-84
2022/01/01 09:30:37;;;;;;;;;;;;;;;17.76;49.98;99748.16;4482000;32;33765;-86
2022/01/01 09:33:05;;;;;;;;;;;;;;;16.49;52.86;99757.41;4483447;32;34348;-84
2022/01/01 09:35:32;;;;;;;;;;;;;;;17.52;50.87;99752.66;4483316;32;35340;-86
2022/01/01 09:37:59;;;;;;;;;;;;;;;17.50;50.14;99751.81;4483122;32;34632;-84
2022/01/01 09:40:28;;;;;;;;;;;;;;;18.57;47.86;99760.59;4483262;32;34198;-85
2022/01/01 09:42:55;;;;;;;;;;;;;;;18.08;48.77;99758.44;4483125;32;34368;-84
2022/01/01 09:45:22;;;;;;;;;;;;;;;17.27;51.15;99756.28;4481825;32;35631;-84
2022/01/01 09:47:50;;;;;;;;;;;;;;;16.94;51.29;99765.19;4481922;32;35109;-85
2022/01/01 09:50:17;;;;;;;;;;;;;;;16.58;52.63;99760.88;4483095;32;34372;-84
2022/01/01 09:52:44;;;;;;;;;;;;;;;17.57;49.87;99751.75;4482994;32;34011;-85
2022/01/01 09:55:12;;;;;;;;;;;;;;;17.98;49.02;99756.75;4483027;32;34580;-84
2022/01/01 09:57:39;;;;;;;;;;;;;;;17.23;51.05;99751.94;4482479;32;34492;-84
2022/01/01 10:00:06;;;;;;;;;;;;;;;16.73;52.26;99760.84;4481433;32;33426;-84
2022/01/01 10:02:34;;;;;;;;;;;;;;;17.28;50.78;99755.44;4483050;31;34172;-86
2022/01/01 10:05:05;;;;;;;;;;;;;;;17.18;51.21;99754.59;4468753;32;35296;-84
2022/01/01 10:07:32;;;;;;;;;;;;;;;17.03;51.44;99752.91;4482945;32;34171;-85
2022/01/01 10:10:19;;;;;;;;;;;;;;;17.63;50.07;99754.34;4483160;32;33489;-86
2022/01/01 10:12:46;;;;;;;;;;;;;;;17.92;49.03;99764.69;4481521;32;34267;-84
2022/01/01 10:15:14;;;;;;;;;;;;;;;16.96;51.64;99768.66;4481663;32;35238;-84
2022/01/01 10:17:41;;;;;;;;;;;;;;;16.99;51.75;99764.28;4482873;32;35153;-85
2022/01/01 10:20:08;;;;;;;;;;;;;;;17.54;49.90;99757.03;4481240;32;32773;-84
2022/01/01 10:22:37;;;;;;;;;;;;;;;17.43;50.62;99760.59;4483169;32;34147;-85
2022/01/01 10:27:57;;;;;;;;;;;;;;;18.01;49.01;99763.75;4481646;32;34280;-85
2022/01/01 10:30:32;;;;;;;;;;;;;;;17.13;51.60;99752.91;4483094;32;33025;-84
2022/01/01 10:33:03;;;;;;;;;;;;;;;17.20;50.94;99758.09;4482564;32;34259;-84
2022/01/01 10:35:35;;;;;;;;;;;;;;;16.01;54.48;99766.16;4482482;32;34043;-84
2022/01/01 10:38:03;;;;;;;;;;;;;;;16.12;54.63;99771.41;4480973;32;34082;-85
2022/01/01 10:40:30;;;;;;;;;;;;;;;16.35;53.98;99764.41;4481124;32;33021;-85
2022/01/01 10:42:57;;;;;;;;;;;;;;;17.00;51.99;99767.78;4482703;32;34420;-85
2022/01/01 10:45:34;;;;;;;;;;;;;;;17.47;50.84;99772.81;4482155;32;34546;-86
2022/01/01 10:48:21;;;;;;;;;;;;;;;17.57;49.83;99760.50;4482206;32;34937;-85
2022/01/01 10:50:49;;;;;;;;;;;;;;;17.29;50.51;99770.28;4481071;32;32765;-84
2022/01/01 10:53:34;;;;;;;;;;;;;;;17.39;50.58;99777.22;4482334;32;34083;-84
2022/01/01 10:56:03;;;;;;;;;;;;;;;17.44;50.95;99777.19;4482032;32;35398;-85
2022/01/01 10:58:32;;;;;;;;;;;;;;;16.86;52.20;99775.69;4482101;32;33904;-84
2022/01/01 11:01:00;;;;;;;;;;;;;;;17.17;51.41;99776.44;4482069;32;34289;-85
2022/01/01 11:03:28;;;;;;;;;;;;;;;16.06;53.78;99772.25;4481958;32;33970;-84
2022/01/01 11:06:03;;;;;;;;;;;;;;;17.12;51.54;99775.59;4482297;32;35337;-84
2022/01/01 11:08:31;;;;;;;;;;;;;;;17.97;49.31;99770.75;4482001;32;33272;-84
2022/01/01 11:10:58;;;;;;;;;;;;;;;17.70;49.79;99769.19;4482579;32;34014;-83
2022/01/01 11:13:25;;;;;;;;;;;;;;;18.06;48.42;99775.06;4484293;32;35105;-84
2022/01/01 11:15:52;;;;;;;;;;;;;;;18.28;47.88;99781.00;4484161;32;34665;-85
2022/01/01 11:18:20;;;;;;;;;;;;;;;18.33;48.17;99779.19;4482941;32;34599;-84
2022/01/01 11:20:47;;;;;;;;;;;;;;;17.30;50.51;99787.72;4483234;32;33745;-84
2022/01/01 11:23:14;;;;;;;;;;;;;;;17.39;50.37;99774.59;4483011;32;33857;-83
2022/01/01 11:25:42;;;;;;;;;;;;;;;17.20;50.48;99770.34;4484633;32;34804;-85
2022/01/01 11:28:11;;;;;;;;;;;;;;;17.40;50.33;99781.56;4484272;32;34356;-84
2022/01/01 11:30:58;;;;;;;;;;;;;;;16.62;52.60;99788.78;4482872;32;33621;-84
2022/01/01 11:33:30;;;;;;;;;;;;;;;17.82;49.49;99776.12;4482954;32;34482;-84
2022/01/01 11:35:58;;;;;;;;;;;;;;;17.44;50.46;99769.31;4482644;32;34857;-85
2022/01/01 11:38:26;;;;;;;;;;;;;;;18.13;48.60;99766.25;4484151;32;33883;-84
2022/01/01 11:40:54;;;;;;;;;;;;;;;16.79;52.28;99768.72;4484142;32;33196;-84
2022/01/01 11:43:51;;;;;;;;;;;;;;;17.93;49.28;99762.03;4483985;32;35118;-85
2022/01/01 11:46:18;;;;;;;;;;;;;;;17.27;50.89;99772.03;4483148;32;35415;-85
2022/01/01 11:48:53;;;;;;;;;;;;;;;17.20;51.41;99767.72;4484144;32;34295;-84
2022/01/01 11:51:35;;;;;;;;;;;;;;;16.95;52.15;99775.66;4482816;32;34191;-84
2022/01/01 11:54:15;;;;;;;;;;;;;;;17.44;50.63;99775.44;4483293;32;33706;-84
2022/01/01 11:56:58;;;;;;;;;;;;;;;17.49;50.57;99783.28;4483912;32;34277;-83
2022/01/01 11:59:27;;;;;;;;;;;;;;;18.16;48.63;99779.34;4484083;32;33885;-84
2022/01/01 12:01:59;;;;;;;;;;;;;;;18.59;47.62;99779.81;4482700;32;33629;-84
2022/01/01 12:04:32;;;;;;;;;;;;;;;18.16;48.67;99785.47;4482588;32;34149;-84
2022/01/01 12:07:01;;;;;;;;;;;;;;;17.42;50.55;99789.41;4484269;32;33898;-85
2022/01/01 12:09:29;;;;;;;;;;;;;;;17.82;49.62;99790.09;4482568;32;34184;-85
2022/01/01 12:11:57;;;;;;;;;;;;;;;16.78;52.42;99793.16;4468697;32;32958;-83
2022/01/01 12:14:28;;;;;;;;;;;;;;;17.34;51.37;99788.59;4481679;32;34243;-85
2022/01/01 12:16:56;;;;;;;;;;;;;;;18.40;48.75;99786.13;4482145;32;33840;-84
2022/01/01 12:19:24;;;;;;;;;;;;;;;18.15;48.87;99790.75;4483791;32;34744;-83
2022/01/01 12:22:10;;;;;;;;;;;;;;;17.96;49.43;99784.78;4482155;32;34233;-84
2022/01/01 12:24:38;;;;;;;;;;;;;;;17.53;50.39;99787.63;4477807;32;34211;-83
2022/01/01 12:27:11;;;;;;;;;;;;;;;16.20;53.57;99777.50;4480103;32;34576;-83
2022/01/01 12:29:39;;;;;;;;;;;;;;;16.96;52.14;99782.63;4480655;32;34296;-84
2022/01/01 12:32:08;;;;;;;;;;;;;;;17.49;50.56;99785.88;4483432;32;33077;-85
2022/01/01 12:34:38;;;;;;;;;;;;;;;17.71;49.91;99786.66;4483842;32;34244;-84
2022/01/01 12:37:09;;;;;;;;;;;;;;;17.19;51.48;99805.25;4479380;32;34293;-85
2022/01/01 12:39:55;;;;;;;;;;;;;;;16.12;54.13;99803.66;4471583;32;33621;-86
2022/01/01 12:42:29;;;;;;;;;;;;;;;17.49;50.45;99797.25;4483481;32;34201;-84
2022/01/01 12:45:00;;;;;;;;;;;;;;;17.59;50.39;99802.47;4480948;32;34150;-83
2022/01/01 12:47:29;;;;;;;;;;;;;;;17.41;50.63;99800.78;4483335;31;34482;-83
2022/01/01 12:50:00;;;;;;;;;;;;;;;16.98;51.70;99808.84;4482032;32;34211;-83
2022/01/01 12:52:28;;;;;;;;;;;;;;;17.14;51.39;99809.66;4471379;32;34182;-82
2022/01/01 12:54:58;;;;;;;;;;;;;;;17.13;51.67;99800.91;4482224;32;34006;-84
2022/01/01 12:57:32;;;;;;;;;;;;;;;17.01;51.95;99809.69;4482250;32;35301;-82
2022/01/01 13:00:18;;;;;;;;;;;;;;;16.09;54.18;99811.50;4461808;32;34254;-84